Greenwood, South Dakota
Current Conditions -  °F | °C
As of 9:53 PM on Wednesday 28 Jan 2015 (Local Time) from KMHE Reporting Station
Overcast Overcast  
Wind Chill: -5°   Ceiling: 1500
Heat Index:   Visibility: 10mi
Dew Point: -1°   Wind: 28mph
Humidity: 82%   Direction: 330°NNW
Pressure: 30.06"   Gusts: 40mph
Location:  43.0908°N, 98.2525°W
Report Text: KMHE 290353Z AUTO 33024G35KT 10SM OVC015 02/M01 A3006 RMK AO2 PK WND 33035/0346 SLP193 T00171011
Loading
Personal Weather Stations






























Interactive Weather Map New forecast layout! Learn more

10-Day Weather Forecast

Advertisements
Track Severe Weather on mobile